Time;durP1;ratioP1;P1;durP2;ratioP2;P2;SDS_P1;SDS_P2;PMS_P1;PMS_P2;Temp;Humidity;BMP_temperature;BMP_pressure;BME280_temperature;BME280_humidity;BME280_pressure;Samples;Min_cycle;Max_cycle;Signal;HPM_P1;HPM_P2
2021/10/09 00:00:01;;;;;;;34.70;17.95;;;;;;;1.93;74.99;101711.74;1659357;84;20926;-66
2021/10/09 00:02:28;;;;;;;36.25;17.15;;;;;;;1.95;75.07;101712.62;1661381;85;20961;-66
2021/10/09 00:04:55;;;;;;;39.65;19.75;;;;;;;1.97;75.16;101712.66;1661167;85;21932;-66
2021/10/09 00:07:22;;;;;;;30.52;17.05;;;;;;;2.00;75.25;101713.58;1640141;85;21144;-66
2021/10/09 00:09:53;;;;;;;34.40;19.03;;;;;;;2.05;75.22;101714.11;1666942;85;20954;-66
2021/10/09 00:12:18;;;;;;;36.10;17.12;;;;;;;2.09;75.28;101712.03;1645351;86;20954;-65
2021/10/09 00:14:45;;;;;;;30.08;15.58;;;;;;;2.14;75.29;101705.26;1668690;84;21432;-66
2021/10/09 00:17:14;;;;;;;31.27;14.43;;;;;;;2.20;75.37;101715.67;1667792;84;20977;-66
2021/10/09 00:19:40;;;;;;;24.65;15.20;;;;;;;2.26;75.35;101711.92;1660408;85;21245;-66
2021/10/09 00:22:07;;;;;;;24.33;13.80;;;;;;;2.33;75.29;101713.78;1654159;85;21496;-66
2021/10/09 00:24:34;;;;;;;32.20;15.00;;;;;;;2.37;75.30;101713.41;1650579;85;20965;-66
2021/10/09 00:27:00;;;;;;;24.55;13.18;;;;;;;2.45;75.27;101719.58;1650264;85;21084;-66
2021/10/09 00:29:27;;;;;;;32.80;15.72;;;;;;;2.50;75.22;101719.67;1650924;85;21024;-66
2021/10/09 00:31:54;;;;;;;35.33;18.42;;;;;;;2.52;75.12;101717.96;1631490;86;21768;-66
2021/10/09 00:34:21;;;;;;;31.45;16.93;;;;;;;2.53;75.06;101723.59;1619127;85;20941;-66
2021/10/09 00:36:47;;;;;;;31.97;16.90;;;;;;;2.49;74.97;101720.48;1629088;85;20969;-66
2021/10/09 00:39:14;;;;;;;28.40;15.23;;;;;;;2.44;74.93;101718.72;1631490;86;21579;-66
2021/10/09 00:41:41;;;;;;;31.50;16.93;;;;;;;2.37;74.96;101715.98;1629172;86;20986;-66
2021/10/09 00:44:14;;;;;;;36.55;16.17;;;;;;;2.30;74.98;101717.59;1650952;85;21913;-67
2021/10/09 00:46:42;;;;;;;31.02;15.45;;;;;;;2.24;74.96;101716.17;1653976;85;21875;-66
2021/10/09 00:49:15;;;;;;;29.30;14.18;;;;;;;2.18;74.96;101719.92;1655709;85;20941;-66
2021/10/09 00:51:38;;;;;;;22.22;12.93;;;;;;;2.11;74.92;101721.53;1605724;86;21446;-66
2021/10/09 00:54:05;;;;;;;31.60;14.23;;;;;;;2.06;74.97;101728.72;1606711;88;20928;-66
2021/10/09 00:56:34;;;;;;;25.90;14.03;;;;;;;2.03;75.00;101722.22;1628939;85;21560;-66
2021/10/09 00:59:02;;;;;;;35.73;14.55;;;;;;;2.00;75.11;101726.47;1611421;88;21006;-66
2021/10/09 01:01:30;;;;;;;23.67;14.30;;;;;;;1.95;75.15;101720.34;1602131;88;21575;-66
2021/10/09 01:03:57;;;;;;;26.85;14.55;;;;;;;1.92;75.19;101712.56;1605220;88;28165;-67
2021/10/09 01:06:24;;;;;;;25.68;15.00;;;;;;;1.89;75.38;101713.79;1659649;85;20960;-66
2021/10/09 01:08:51;;;;;;;28.47;15.43;;;;;;;1.88;75.50;101721.08;1663244;85;21003;-66
2021/10/09 01:11:17;;;;;;;26.73;15.40;;;;;;;1.81;75.28;101711.47;1636639;86;21418;-66
2021/10/09 01:13:44;;;;;;;34.87;17.13;;;;;;;1.74;75.36;101717.36;1654807;85;21484;-66
2021/10/09 01:16:22;;;;;;;29.60;16.20;;;;;;;1.65;75.27;101713.28;1657620;85;21036;-66
2021/10/09 01:18:54;;;;;;;31.52;16.90;;;;;;;1.59;75.37;101714.44;1665529;85;21639;-67
2021/10/09 01:21:23;;;;;;;30.12;16.52;;;;;;;1.52;75.35;101711.74;1656441;85;21711;-66
2021/10/09 01:23:51;;;;;;;27.93;15.65;;;;;;;1.43;75.45;101719.27;1657000;85;20935;-66
2021/10/09 01:26:19;;;;;;;30.30;16.48;;;;;;;1.35;75.51;101719.52;1658751;85;20935;-66
2021/10/09 01:28:51;;;;;;;26.12;17.50;;;;;;;1.30;75.59;101715.97;1661582;85;21027;-66
2021/10/09 01:31:19;;;;;;;23.30;15.98;;;;;;;1.24;75.60;101719.70;1659691;85;20935;-66
2021/10/09 01:33:46;;;;;;;21.85;15.25;;;;;;;1.15;75.58;101716.49;1657024;85;21130;-67
2021/10/09 01:36:13;;;;;;;26.52;16.20;;;;;;;1.06;75.64;101713.27;1656509;85;21493;-66
2021/10/09 01:38:40;;;;;;;27.63;14.53;;;;;;;0.98;75.70;101717.38;1659176;85;21089;-66
2021/10/09 01:41:07;;;;;;;22.35;13.03;;;;;;;0.92;75.87;101718.50;1630783;85;20958;-66
2021/10/09 01:43:34;;;;;;;23.95;14.38;;;;;;;0.88;75.95;101715.41;1660250;85;20967;-67
2021/10/09 01:46:01;;;;;;;27.85;15.80;;;;;;;0.82;75.98;101708.84;1666580;85;21889;-66
2021/10/09 01:48:40;;;;;;;24.95;13.65;;;;;;;0.78;76.15;101717.30;1670075;85;20930;-66
2021/10/09 01:51:09;;;;;;;25.30;13.98;;;;;;;0.74;76.19;101709.93;1670485;84;21441;-67
2021/10/09 01:53:37;;;;;;;28.65;12.95;;;;;;;0.72;76.24;101708.16;1638969;86;20993;-66
2021/10/09 01:56:06;;;;;;;24.50;13.15;;;;;;;0.69;76.25;101715.80;1643734;86;20944;-66
2021/10/09 01:58:35;;;;;;;21.80;13.68;;;;;;;0.64;76.32;101713.98;1657422;85;21071;-66
2021/10/09 02:01:03;;;;;;;23.35;14.70;;;;;;;0.60;76.32;101718.58;1663127;85;21469;-66
2021/10/09 02:03:29;;;;;;;;;;;;;;;0.58;76.36;101721.52;1663950;85;20967;-66
2021/10/09 02:05:56;;;;;;;28.45;13.60;;;;;;;0.55;76.49;101717.59;1636274;87;20153;-66
2021/10/09 02:08:23;;;;;;;23.50;13.25;;;;;;;0.53;76.51;101717.95;1676431;84;20949;-66
2021/10/09 02:10:56;;;;;;;25.10;13.75;;;;;;;0.53;76.62;101724.38;1627263;86;21355;-66
2021/10/09 02:13:35;;;;;;;27.70;14.45;;;;;;;0.52;76.60;101723.94;1658445;84;20942;-67
2021/10/09 02:16:17;;;;;;;22.73;11.48;;;;;;;0.52;76.72;101721.37;1641409;86;20906;-67
2021/10/09 02:18:42;;;;;;;21.62;12.65;;;;;;;0.52;76.81;101721.37;1639726;86;20966;-66
2021/10/09 02:26:32;;;;;;;28.62;13.13;;;;;;;0.47;76.76;101722.95;1667335;85;20931;-67
2021/10/09 02:28:59;;;;;;;28.67;13.10;;;;;;;0.41;76.76;101725.36;1631386;85;21463;-66
2021/10/09 02:31:28;;;;;;;24.82;13.38;;;;;;;0.38;76.82;101729.14;1641699;86;20959;-66
2021/10/09 02:33:55;;;;;;;24.87;14.10;;;;;;;0.36;76.88;101728.22;1648985;86;20970;-66
2021/10/09 02:36:21;;;;;;;26.37;12.57;;;;;;;0.30;76.79;101717.36;1655483;85;21057;-66
2021/10/09 02:38:48;;;;;;;21.85;13.45;;;;;;;0.30;76.79;101717.36;1667347;84;20978;-66
2021/10/09 02:41:15;;;;;;;25.27;13.18;;;;;;;0.29;76.98;101722.48;1650808;86;20990;-67
2021/10/09 02:43:42;;;;;;;23.97;12.97;;;;;;;0.28;77.08;101719.44;1664637;85;20957;-66
2021/10/09 02:46:08;;;;;;;22.97;13.60;;;;;;;0.26;77.16;101717.27;1642065;86;21521;-66
2021/10/09 02:48:35;;;;;;;27.25;12.37;;;;;;;0.24;77.14;101725.34;1665095;85;21121;-66
2021/10/09 02:51:02;;;;;;;17.82;12.05;;;;;;;0.20;77.15;101723.97;1666303;85;21430;-66
2021/10/09 02:53:28;;;;;;;17.30;11.50;;;;;;;0.19;77.16;101714.50;1649428;86;20944;-66
2021/10/09 02:55:55;;;;;;;20.10;11.00;;;;;;;0.18;77.20;101723.05;1649185;85;20934;-66
2021/10/09 02:58:22;;;;;;;21.10;12.98;;;;;;;0.16;77.30;101722.13;1670110;85;22109;-66
2021/10/09 03:00:49;;;;;;;19.85;11.90;;;;;;;0.17;77.38;101726.46;1671367;85;20957;-66
2021/10/09 03:03:16;;;;;;;25.35;13.28;;;;;;;0.16;77.46;101732.41;1673376;85;20994;-66
2021/10/09 03:05:43;;;;;;;18.90;12.07;;;;;;;0.15;77.43;101734.53;1643731;86;20981;-66
2021/10/09 03:08:12;;;;;;;23.87;13.47;;;;;;;0.13;77.44;101736.18;1658893;84;21635;-66
2021/10/09 03:10:40;;;;;;;22.55;13.70;;;;;;;0.12;77.54;101741.30;1635888;86;20978;-66
2021/10/09 03:13:07;;;;;;;24.43;13.15;;;;;;;0.10;77.60;101738.66;1644927;85;21128;-67
2021/10/09 03:15:34;;;;;;;22.60;12.73;;;;;;;0.10;77.66;101737.38;1672233;84;21374;-67
2021/10/09 03:18:02;;;;;;;21.05;11.75;;;;;;;0.09;77.59;101740.79;1649248;86;20940;-66
2021/10/09 03:20:28;;;;;;;21.10;12.75;;;;;;;0.10;77.67;101737.38;1671996;84;20967;-66
2021/10/09 03:22:55;;;;;;;22.58;12.65;;;;;;;0.12;77.71;101740.88;1653130;86;21021;-66
2021/10/09 03:25:22;;;;;;;25.50;12.90;;;;;;;0.13;77.68;101743.02;1659846;85;21309;-66
2021/10/09 03:27:49;;;;;;;19.57;12.13;;;;;;;0.08;77.65;101740.31;1639890;86;20905;-67
2021/10/09 03:30:16;;;;;;;25.32;11.80;;;;;;;0.06;77.68;101739.84;1657770;85;20956;-66
2021/10/09 03:32:43;;;;;;;19.70;11.83;;;;;;;0.03;77.75;101739.73;1663129;85;20969;-66
2021/10/09 03:35:10;;;;;;;24.27;11.68;;;;;;;0.01;77.78;101743.55;1638872;87;21611;-66
2021/10/09 03:37:37;;;;;;;17.45;11.85;;;;;;;0.01;77.77;101752.96;1645288;86;21923;-66
2021/10/09 03:40:07;;;;;;;19.45;12.98;;;;;;;-0.01;77.81;101746.48;1635775;85;20995;-66
2021/10/09 03:42:45;;;;;;;22.10;13.15;;;;;;;-0.03;77.90;101742.99;1660794;85;21030;-66
2021/10/09 03:45:17;;;;;;;27.42;13.25;;;;;;;-0.05;77.87;101751.09;1658100;85;20958;-66
2021/10/09 03:50:17;;;;;;;28.17;13.03;;;;;;;-0.10;77.96;101739.81;1670030;85;21521;-66
2021/10/09 03:52:38;;;;;;;25.25;12.93;;;;;;;-0.12;78.04;101738.47;1662092;85;20993;-66
2021/10/09 03:55:10;;;;;;;27.13;12.82;;;;;;;-0.12;78.09;101740.17;1660371;84;20973;-66
2021/10/09 03:57:37;;;;;;;24.00;13.22;;;;;;;-0.14;78.13;101740.15;1629272;86;21535;-66
2021/10/09 04:00:07;;;;;;;28.25;14.25;;;;;;;-0.13;78.20;101748.72;1654948;85;20973;-66
2021/10/09 04:02:34;;;;;;;28.75;14.30;;;;;;;-0.12;78.28;101743.61;1662078;85;21031;-66
2021/10/09 04:05:02;;;;;;;30.10;14.20;;;;;;;-0.12;78.28;101745.31;1655716;85;20941;-66
2021/10/09 04:07:28;;;;;;;27.75;16.02;;;;;;;-0.11;78.29;101744.47;1655646;85;21540;-66
2021/10/09 04:09:55;;;;;;;33.03;16.43;;;;;;;-0.13;78.30;101743.58;1637489;85;20949;-66
2021/10/09 04:12:22;;;;;;;27.07;15.72;;;;;;;-0.13;78.30;101738.45;1657073;85;20966;-66
2021/10/09 04:14:49;;;;;;;24.30;14.60;;;;;;;-0.13;78.29;101742.30;1646176;85;21063;-66
2021/10/09 04:17:16;;;;;;;28.75;16.20;;;;;;;-0.14;78.25;101745.28;1655810;85;20935;-66
2021/10/09 04:19:42;;;;;;;28.23;16.05;;;;;;;-0.13;78.23;101738.45;1664605;85;20949;-66
2021/10/09 04:22:09;;;;;;;28.57;14.40;;;;;;;-0.15;78.27;101740.09;1643793;86;20914;-66
2021/10/09 04:24:36;;;;;;;27.35;13.90;;;;;;;-0.14;78.26;101744.38;1672963;84;20931;-66
2021/10/09 04:27:03;;;;;;;26.33;14.27;;;;;;;-0.18;78.27;101751.55;1676429;84;21672;-66
2021/10/09 04:29:30;;;;;;;31.07;14.90;;;;;;;-0.21;78.29;101739.92;1647342;86;21568;-66
2021/10/09 04:31:57;;;;;;;29.98;15.85;;;;;;;-0.20;78.33;101754.48;1664885;84;20923;-66
2021/10/09 04:34:24;;;;;;;24.07;15.70;;;;;;;-0.23;78.30;101745.86;1680697;84;20923;-66
2021/10/09 04:36:51;;;;;;;21.40;13.38;;;;;;;-0.24;78.38;101749.27;1677862;84;20946;-66
2021/10/09 04:39:20;;;;;;;27.40;13.90;;;;;;;-0.26;78.41;101753.47;1674520;84;21060;-67
2021/10/09 04:41:46;;;;;;;29.77;14.53;;;;;;;-0.25;78.49;101752.67;1654634;86;21387;-66
2021/10/09 04:44:13;;;;;;;30.85;14.40;;;;;;;-0.23;78.47;101754.84;1674422;84;20989;-66
2021/10/09 04:46:40;;;;;;;29.48;15.18;;;;;;;-0.23;78.49;101750.99;1682215;84;20970;-66
2021/10/09 04:49:08;;;;;;;25.80;14.85;;;;;;;-0.23;78.49;101748.42;1634565;86;21510;-66
2021/10/09 04:51:36;;;;;;;29.72;16.62;;;;;;;-0.26;78.42;101745.77;1677551;84;21016;-66
2021/10/09 04:54:03;;;;;;;47.27;17.35;;;;;;;-0.32;78.32;101750.73;1682704;84;21457;-66
2021/10/09 04:56:29;;;;;;;42.07;16.60;;;;;;;-0.36;78.39;101748.05;1681167;84;21680;-66
2021/10/09 04:58:56;;;;;;;42.35;17.80;;;;;;;-0.40;78.40;101753.48;1681807;84;20967;-66
2021/10/09 05:01:23;;;;;;;36.93;16.25;;;;;;;-0.39;78.54;101753.06;1678542;84;20950;-66
2021/10/09 05:03:50;;;;;;;40.23;17.07;;;;;;;-0.38;78.61;101750.55;1675466;84;21168;-66
2021/10/09 05:06:18;;;;;;;37.05;17.20;;;;;;;-0.40;78.56;101749.63;1675653;84;21263;-66
2021/10/09 05:08:45;;;;;;;44.42;15.58;;;;;;;-0.39;78.61;101753.06;1629816;86;20971;-66
2021/10/09 05:11:11;;;;;;;37.58;17.07;;;;;;;-0.39;78.58;101756.53;1675132;84;21084;-66
2021/10/09 05:13:38;;;;;;;30.25;13.45;;;;;;;-0.43;78.56;101749.54;1675438;83;21471;-66
2021/10/09 05:16:06;;;;;;;33.97;15.40;;;;;;;-0.42;78.64;101759.00;1676198;84;21061;-66
2021/10/09 05:18:32;;;;;;;29.63;14.05;;;;;;;-0.37;78.75;101756.14;1668994;84;20967;-66
2021/10/09 05:20:59;;;;;;;31.57;14.97;;;;;;;-0.32;78.82;101755.87;1667838;85;20894;-66
2021/10/09 05:23:29;;;;;;;33.00;13.90;;;;;;;-0.15;79.06;101751.64;1662781;84;20970;-66
2021/10/09 05:25:54;;;;;;;27.65;13.43;;;;;;;0.28;79.30;101754.12;1640273;86;20954;-66
2021/10/09 05:28:27;;;;;;;24.98;13.62;;;;;;;0.82;79.39;101752.56;1651065;85;21122;-66
2021/10/09 05:30:50;;;;;;;26.05;14.60;;;;;;;1.27;78.98;101748.07;1621036;85;20997;-66
2021/10/09 05:35:43;;;;;;;23.07;14.63;;;;;;;2.42;79.08;101751.33;1665112;84;20954;-67
2021/10/09 05:38:10;;;;;;;32.75;16.32;;;;;;;2.99;78.79;101754.02;1657839;85;21077;-67
2021/10/09 05:40:37;;;;;;;26.42;15.60;;;;;;;3.44;78.28;101754.28;1638928;85;21075;-67
2021/10/09 05:43:04;;;;;;;31.13;16.47;;;;;;;3.65;77.75;101749.86;1656046;85;20917;-67
2021/10/09 05:45:32;;;;;;;31.68;15.88;;;;;;;3.89;77.56;101746.70;1658246;85;20933;-66
2021/10/09 05:47:59;;;;;;;30.90;16.40;;;;;;;4.23;77.67;101755.33;1670415;85;21001;-67
2021/10/09 05:50:33;;;;;;;29.87;15.13;;;;;;;4.51;77.14;101741.80;1672157;85;20965;-66
2021/10/09 05:55:35;;;;;;;23.75;15.83;;;;;;;4.98;76.53;101743.95;1668475;85;21046;-67
2021/10/09 06:47:14;;;;;;;40.65;21.40;;;;;;;7.98;75.82;101743.69;1655002;85;21487;-66
2021/10/09 07:00:34;;;;;;;22.27;13.15;;;;;;;8.84;76.20;101747.12;1657563;85;20994;-67
2021/10/09 07:03:01;;;;;;;18.60;12.90;;;;;;;8.84;76.47;101747.12;1660294;85;21000;-67
2021/10/09 07:05:27;;;;;;;20.02;13.08;;;;;;;8.94;76.58;101748.79;1659349;85;20967;-67
2021/10/09 07:07:58;;;;;;;27.03;13.53;;;;;;;8.98;76.26;101749.17;1631747;86;20983;-67
2021/10/09 07:10:25;;;;;;;28.47;14.03;;;;;;;9.02;76.40;101751.31;1656084;85;20943;-66
2021/10/09 07:12:52;;;;;;;24.00;14.50;;;;;;;9.14;76.44;101751.22;1656453;85;21113;-68
2021/10/09 07:15:18;;;;;;;28.15;16.17;;;;;;;9.13;76.25;101754.69;1655217;86;20994;-66
2021/10/09 07:17:45;;;;;;;30.17;19.25;;;;;;;9.07;76.46;101756.91;1657536;85;20985;-66
2021/10/09 07:20:13;;;;;;;35.60;19.23;;;;;;;8.95;76.58;101751.37;1631385;85;21521;-66
2021/10/09 07:22:40;;;;;;;38.02;22.05;;;;;;;8.95;76.97;101753.11;1657093;85;20950;-67
2021/10/09 07:25:07;;;;;;;52.65;24.37;;;;;;;9.07;77.04;101755.60;1639168;86;21252;-67
2021/10/09 07:27:34;;;;;;;43.13;22.42;;;;;;;9.19;77.10;101757.27;1669412;85;20948;-67
2021/10/09 07:30:01;;;;;;;46.45;23.12;;;;;;;9.29;76.96;101758.03;1639101;87;21666;-66
2021/10/09 07:32:28;;;;;;;49.67;22.17;;;;;;;9.43;76.96;101759.20;1634127;86;21528;-65
2021/10/09 07:34:55;;;;;;;39.90;20.05;;;;;;;9.59;76.89;101760.33;1641892;86;20975;-66
2021/10/09 07:37:22;;;;;;;29.37;14.73;;;;;;;9.71;76.71;101755.86;1668323;85;21073;-66
2021/10/09 07:39:48;;;;;;;25.17;14.40;;;;;;;9.80;76.43;101758.35;1670835;84;20906;-66
2021/10/09 07:42:15;;;;;;;23.67;13.80;;;;;;;9.83;76.15;101761.81;1667704;85;20986;-67
2021/10/09 07:44:42;;;;;;;28.95;15.10;;;;;;;9.91;76.25;101766.06;1666318;84;21453;-67
2021/10/09 07:47:13;;;;;;;27.67;13.32;;;;;;;10.06;76.16;101768.05;1666736;84;21022;-68
2021/10/09 07:49:37;;;;;;;26.42;14.50;;;;;;;10.26;75.98;101770.85;1644762;86;21076;-66
2021/10/09 07:52:05;;;;;;;22.82;13.35;;;;;;;10.45;75.96;101765.83;1636908;87;20976;-66
2021/10/09 07:54:31;;;;;;;;;;;;;;;10.65;75.82;101775.13;1656374;85;20925;-66
2021/10/09 07:56:58;;;;;;;24.55;12.88;;;;;;;10.74;75.39;101764.53;1629224;86;20128;-66
2021/10/09 07:59:29;;;;;;;23.57;11.83;;;;;;;10.83;75.45;101765.69;1665792;83;21042;-66
2021/10/09 08:02:05;;;;;;;28.35;13.25;;;;;;;10.88;75.11;101769.55;1662448;84;21032;-66
2021/10/09 08:04:32;;;;;;;13.08;9.00;;;;;;;10.97;75.17;101770.70;1642416;86;20946;-67
2021/10/09 08:06:59;;;;;;;9.48;7.83;;;;;;;11.15;74.91;101771.72;1636409;86;21000;-65
2021/10/09 08:09:29;;;;;;;10.23;6.72;;;;;;;11.26;74.61;101770.23;1653290;85;21008;-66
2021/10/09 08:11:54;;;;;;;11.33;7.80;;;;;;;11.42;74.42;101770.34;1642227;86;21581;-65
2021/10/09 08:14:21;;;;;;;10.48;7.28;;;;;;;11.49;74.03;101774.19;1640623;85;21021;-65
2021/10/09 08:16:48;;;;;;;11.77;6.57;;;;;;;11.55;73.98;101774.06;1644048;86;21479;-64
2021/10/09 08:19:15;;;;;;;9.43;7.12;;;;;;;11.71;73.78;101775.50;1661565;85;20970;-65
2021/10/09 08:21:43;;;;;;;10.58;6.47;;;;;;;11.86;73.90;101769.98;1669172;84;21006;-65
2021/10/09 08:39:58;;;;;;;11.18;6.15;;;;;;;12.28;72.53;101770.44;1667779;84;21164;-65
2021/10/09 08:42:24;;;;;;;11.40;5.83;;;;;;;12.33;72.25;101762.05;1664239;84;21561;-65
2021/10/09 08:44:51;;;;;;;10.55;5.08;;;;;;;12.42;72.08;101770.14;1664423;84;20962;-65
2021/10/09 08:47:18;;;;;;;8.93;5.80;;;;;;;12.42;71.83;101772.30;1645176;86;20962;-65
2021/10/09 08:49:45;;;;;;;12.03;5.50;;;;;;;12.37;71.63;101767.61;1633298;87;21005;-65
2021/10/09 08:52:21;;;;;;;10.58;6.37;;;;;;;12.36;71.53;101766.36;1665371;85;21055;-65
2021/10/09 08:54:48;;;;;;;7.67;5.47;;;;;;;12.46;71.53;101770.47;1663861;85;20945;-65
2021/10/09 08:57:20;;;;;;;9.85;5.53;;;;;;;12.51;71.15;101767.31;1663918;85;20962;-64
2021/10/09 09:00:09;;;;;;;8.98;5.17;;;;;;;12.62;71.22;101773.16;1646662;86;20906;-65
2021/10/09 09:02:41;;;;;;;8.63;4.60;;;;;;;12.74;71.00;101771.59;1643678;85;20949;-65
2021/10/09 09:35:22;;;;;;;8.98;3.62;;;;;;;13.10;68.17;101753.20;1647080;85;20975;-66
2021/10/09 09:40:47;;;;;;;4.80;2.98;;;;;;;13.06;67.65;101751.58;1663655;85;21587;-65
2021/10/09 09:43:19;;;;;;;4.90;3.30;;;;;;;13.09;67.58;101751.50;1653286;85;20910;-65
2021/10/09 09:45:46;;;;;;;5.33;3.05;;;;;;;13.02;67.39;101736.80;1638537;85;21071;-65
2021/10/09 09:48:19;;;;;;;5.20;3.27;;;;;;;13.18;67.18;101749.94;1664928;85;21640;-65
2021/10/09 09:50:47;;;;;;;4.20;3.08;;;;;;;13.19;66.87;101750.80;1662568;85;20978;-65
2021/10/09 09:53:15;;;;;;;5.85;2.90;;;;;;;13.13;66.47;101747.02;1666769;85;20958;-65
2021/10/09 09:55:45;;;;;;;7.28;3.50;;;;;;;13.15;66.46;101748.71;1663028;84;20950;-65
2021/10/09 09:58:14;;;;;;;7.42;3.30;;;;;;;13.23;66.87;101750.28;1667592;85;21049;-66
2021/10/09 10:00:43;;;;;;;10.30;3.87;;;;;;;13.34;66.52;101743.03;1634279;86;21464;-66
2021/10/09 10:03:12;;;;;;;6.50;3.12;;;;;;;13.41;66.54;101741.95;1665866;85;20938;-65
2021/10/09 10:05:40;;;;;;;3.42;2.62;;;;;;;13.42;65.83;101741.06;1652237;85;20917;-65
2021/10/09 10:08:10;;;;;;;4.47;2.90;;;;;;;13.41;65.67;101745.87;1663543;85;20992;-65
2021/10/09 10:10:37;;;;;;;4.65;2.70;;;;;;;13.41;65.67;101745.87;1661407;85;21867;-65
2021/10/09 10:13:04;;;;;;;6.87;3.10;;;;;;;13.44;65.62;101747.11;1657407;85;20942;-65
2021/10/09 10:15:32;;;;;;;4.75;3.10;;;;;;;13.54;65.50;101747.28;1663875;85;26439;-66
2021/10/09 10:17:59;;;;;;;4.50;2.70;;;;;;;13.61;65.35;101741.39;1632002;86;21588;-65
2021/10/09 10:20:46;;;;;;;10.90;7.17;;;;;;;13.71;65.32;101744.19;1639754;85;21484;-65
2021/10/09 10:23:33;;;;;;;6.22;3.67;;;;;;;13.77;64.99;101740.53;1664997;84;21032;-65
2021/10/09 10:26:22;;;;;;;;;;;;;;;13.88;65.14;101743.70;1641691;85;20891;-66
2021/10/09 10:28:57;;;;;;;2.92;2.12;;;;;;;13.85;64.74;101745.11;1633694;86;20690;-65
2021/10/09 10:31:27;;;;;;;8.50;2.50;;;;;;;13.74;64.27;101739.30;1663962;85;20899;-66
2021/10/09 10:34:22;;;;;;;5.95;2.37;;;;;;;13.75;64.13;101735.77;1663882;85;20939;-65
2021/10/09 10:36:49;;;;;;;8.10;3.80;;;;;;;13.78;64.21;101740.92;1660283;85;21133;-65
2021/10/09 10:39:23;;;;;;;5.70;2.45;;;;;;;13.85;63.91;101738.55;1665747;85;20961;-65
2021/10/09 10:42:01;;;;;;;3.47;2.30;;;;;;;13.90;63.16;101740.59;1646720;85;21458;-65
2021/10/09 10:44:55;;;;;;;5.83;2.60;;;;;;;13.81;63.18;101736.93;1666285;85;20978;-65
2021/10/09 10:47:47;;;;;;;4.00;2.60;;;;;;;13.86;62.96;101740.25;1643335;85;20930;-65
2021/10/09 10:50:55;;;;;;;5.40;3.37;;;;;;;13.87;62.95;101738.06;1645236;86;21869;-65
2021/10/09 10:53:32;;;;;;;11.22;6.72;;;;;;;13.90;62.87;101737.97;1666608;84;20922;-65
2021/10/09 10:56:09;;;;;;;11.38;4.42;;;;;;;13.95;62.69;101733.45;1663995;85;20973;-65
2021/10/09 10:58:38;;;;;;;21.57;14.33;;;;;;;13.99;62.55;101737.69;1668079;85;21030;-66
2021/10/09 11:01:19;;;;;;;6.78;3.95;;;;;;;14.01;62.12;101725.37;1663080;85;21962;-65
2021/10/09 11:03:57;;;;;;;8.90;3.02;;;;;;;13.96;62.09;101727.73;1649245;85;21182;-65
2021/10/09 11:06:26;;;;;;;20.90;5.58;;;;;;;13.86;61.64;101726.70;1633527;87;21522;-65
2021/10/09 11:08:56;;;;;;;6.78;3.70;;;;;;;13.85;62.02;101721.48;1663888;85;21473;-65
2021/10/09 11:11:42;;;;;;;6.55;3.95;;;;;;;13.91;60.76;101721.30;1644935;86;20965;-65
2021/10/09 11:14:08;;;;;;;8.55;3.60;;;;;;;13.73;61.11;101717.91;1639787;86;20951;-65
2021/10/09 11:16:35;;;;;;;7.63;3.50;;;;;;;13.70;61.21;101716.69;1662606;85;21038;-65
2021/10/09 11:19:01;;;;;;;5.78;4.20;;;;;;;13.72;61.35;101718.33;1645892;86;21490;-65
2021/10/09 11:21:28;;;;;;;8.98;4.55;;;;;;;13.64;60.46;101718.58;1663649;85;20954;-65
2021/10/09 11:23:57;;;;;;;6.90;4.00;;;;;;;13.55;60.73;101723.20;1641831;86;21476;-65
2021/10/09 11:26:26;;;;;;;8.45;5.10;;;;;;;13.49;60.34;101720.75;1648204;86;21029;-65
2021/10/09 11:29:05;;;;;;;4.30;3.12;;;;;;;13.45;60.05;101719.98;1645346;86;21908;-65
2021/10/09 11:31:32;;;;;;;8.70;3.40;;;;;;;13.51;60.26;101714.56;1647871;85;20910;-65
2021/10/09 11:34:02;;;;;;;4.60;2.90;;;;;;;13.55;59.55;101714.02;1647923;85;20957;-65
2021/10/09 11:36:33;;;;;;;8.68;3.65;;;;;;;13.50;59.18;101712.85;1625274;86;20985;-65
2021/10/09 11:39:13;;;;;;;8.68;3.58;;;;;;;13.47;59.06;101712.94;1644583;85;21999;-64
2021/10/09 11:41:39;;;;;;;6.05;3.65;;;;;;;13.52;59.20;101711.02;1645085;85;22121;-65
2021/10/09 11:44:21;;;;;;;6.67;3.62;;;;;;;13.62;59.12;101712.50;1646683;85;21001;-65
2021/10/09 11:55:27;;;;;;;3.30;1.90;;;;;;;13.94;58.61;101697.56;1646893;85;21120;-65
2021/10/09 11:57:55;;;;;;;5.42;2.00;;;;;;;13.90;58.19;101692.47;1649784;85;20955;-65
2021/10/09 12:00:34;;;;;;;5.55;2.25;;;;;;;13.85;58.34;101692.59;1645679;85;20975;-65
2021/10/09 12:03:04;;;;;;;8.45;2.98;;;;;;;13.87;58.04;101690.80;1643859;85;21482;-65
2021/10/09 12:05:36;;;;;;;5.03;2.72;;;;;;;13.86;57.51;101691.67;1646147;85;20914;-65
2021/10/09 12:08:14;;;;;;;7.05;3.00;;;;;;;13.86;57.62;101687.31;1602942;87;21078;-65
2021/10/09 12:11:03;;;;;;;7.50;3.08;;;;;;;13.83;57.56;101694.40;1645928;85;20899;-65
2021/10/09 12:13:29;;;;;;;4.65;3.30;;;;;;;13.80;57.49;101689.23;1644707;85;20974;-65
2021/10/09 12:16:10;;;;;;;4.33;3.25;;;;;;;13.68;57.29;101690.92;1649455;86;21013;-65
2021/10/09 12:19:09;;;;;;;2.42;1.95;;;;;;;13.49;57.08;101688.80;1647773;86;20985;-64
2021/10/09 12:21:40;;;;;;;9.30;2.05;;;;;;;13.26;56.99;101691.21;1646330;86;21053;-64
2021/10/09 12:24:18;;;;;;;3.80;1.80;;;;;;;13.01;56.91;101687.89;1648724;86;20977;-65
2021/10/09 12:27:17;;;;;;;;;;;;;;;12.86;56.95;101678.67;1638728;86;21477;-64
2021/10/09 12:30:08;;;;;;;4.97;2.05;;;;;;;12.88;56.26;101679.92;1655128;85;20134;-64
2021/10/09 12:32:48;;;;;;;1.77;1.35;;;;;;;13.01;56.72;101673.47;1651326;85;21524;-66
2021/10/09 12:35:33;;;;;;;3.60;2.20;;;;;;;13.13;56.59;101677.06;1654479;85;21061;-64
2021/10/09 12:38:04;;;;;;;5.30;2.42;;;;;;;13.25;56.59;101671.96;1653685;85;20976;-64
2021/10/09 12:40:46;;;;;;;4.70;1.50;;;;;;;13.33;56.41;101674.38;1666572;84;20951;-65
2021/10/09 12:43:19;;;;;;;4.97;1.70;;;;;;;13.27;55.99;101670.63;1662764;84;20970;-64
2021/10/09 12:45:46;;;;;;;2.12;1.45;;;;;;;13.20;56.08;101668.14;1662318;84;20985;-64
2021/10/09 12:48:14;;;;;;;2.02;1.37;;;;;;;13.23;55.84;101671.59;1661121;85;21071;-63
2021/10/09 12:50:43;;;;;;;3.02;1.32;;;;;;;13.20;55.57;101662.89;1661646;84;24299;-64
2021/10/09 12:53:10;;;;;;;5.22;1.50;;;;;;;13.16;55.66;101669.14;1660081;84;20998;-65
2021/10/09 12:55:37;;;;;;;2.17;1.70;;;;;;;13.06;54.95;101657.17;1632936;86;20958;-65
2021/10/09 12:58:08;;;;;;;3.47;1.35;;;;;;;13.10;55.16;101669.28;1635632;87;20962;-64
2021/10/09 13:00:38;;;;;;;2.65;1.40;;;;;;;13.09;54.71;101664.95;1615669;87;21063;-65
2021/10/09 13:03:05;;;;;;;2.30;1.52;;;;;;;13.12;55.20;101664.01;1659510;84;20966;-65
2021/10/09 13:05:33;;;;;;;3.50;1.60;;;;;;;13.11;54.93;101653.97;1633681;86;20963;-64
2021/10/09 13:08:01;;;;;;;2.08;1.65;;;;;;;13.10;54.95;101658.79;1664552;84;20981;-64
2021/10/09 13:10:33;;;;;;;2.58;1.50;;;;;;;13.09;54.95;101653.15;1663079;85;20935;-65
2021/10/09 13:12:59;;;;;;;5.50;2.70;;;;;;;13.11;54.85;101655.28;1648479;86;21158;-65
2021/10/09 13:15:26;;;;;;;3.33;2.10;;;;;;;13.11;54.45;101655.28;1662479;85;21002;-65
2021/10/09 13:17:53;;;;;;;3.10;1.98;;;;;;;13.04;54.28;101647.16;1643021;86;20932;-65
2021/10/09 13:20:20;;;;;;;5.00;2.47;;;;;;;12.95;53.78;101646.10;1659155;85;20941;-65
2021/10/09 13:22:51;;;;;;;5.57;2.77;;;;;;;12.88;53.88;101639.28;1661877;84;20982;-65
2021/10/09 13:25:18;;;;;;;4.35;2.10;;;;;;;12.85;53.82;101638.06;1646013;86;21221;-65
2021/10/09 13:27:45;;;;;;;3.42;2.10;;;;;;;12.86;53.94;101628.00;1605065;87;21496;-65
2021/10/09 13:30:12;;;;;;;3.67;2.00;;;;;;;12.88;53.87;101627.06;1627263;87;21004;-65
2021/10/09 13:32:38;;;;;;;5.30;2.17;;;;;;;12.89;53.94;101623.53;1629423;86;20985;-65
2021/10/09 13:35:06;;;;;;;5.00;2.07;;;;;;;12.90;53.89;101620.45;1628341;86;21025;-65
2021/10/09 13:37:37;;;;;;;4.83;1.80;;;;;;;12.90;53.75;101619.14;1598888;88;21016;-66
2021/10/09 13:40:01;;;;;;;4.80;1.52;;;;;;;12.87;53.68;101613.98;1624669;87;21041;-65